Time;durP1;ratioP1;P1;durP2;ratioP2;P2;SDS_P1;SDS_P2;PMS_P1;PMS_P2;Temp;Humidity;BMP_temperature;BMP_pressure;BME280_temperature;BME280_humidity;BME280_pressure;Samples;Min_cycle;Max_cycle;Signal;HPM_P1;HPM_P2
2023/01/20 00:01:03;;;;;;;;;;;;;;;5.98;100.00;97197.53;5123228;28;19962;-60
2023/01/20 00:03:29;;;;;;;;;;;;;;;6.08;100.00;97196.81;5105349;28;19920;-60
2023/01/20 00:05:56;;;;;;;;;;;;;;;6.09;100.00;97197.63;5113345;28;20574;-60
2023/01/20 00:08:22;;;;;;;;;;;;;;;5.96;100.00;97198.84;5119789;28;19924;-60
2023/01/20 00:10:48;;;;;;;;;;;;;;;5.93;100.00;97199.34;5120825;28;19983;-61
2023/01/20 00:13:15;;;;;;;;;;;;;;;5.94;100.00;97196.44;5123195;28;19927;-61
2023/01/20 00:15:42;;;;;;;;;;;;;;;6.02;100.00;97197.84;5122364;28;19966;-60
2023/01/20 00:18:09;;;;;;;;;;;;;;;6.05;100.00;97191.22;5119385;28;19924;-60
2023/01/20 00:20:35;;;;;;;;;;;;;;;6.08;100.00;97201.31;5119466;28;19948;-60
2023/01/20 00:23:01;;;;;;;;;;;;;;;6.11;100.00;97201.63;5122577;28;19957;-61
2023/01/20 00:25:28;;;;;;;;;;;;;;;6.11;100.00;97203.47;5122744;28;19978;-61
2023/01/20 00:27:54;;;;;;;;;;;;;;;6.15;100.00;97216.00;5102244;28;19923;-61
2023/01/20 00:30:21;;;;;;;;;;;;;;;6.11;100.00;97222.03;5119392;28;20412;-62
2023/01/20 00:32:48;;;;;;;;;;;;;;;6.10;100.00;97215.91;5120435;28;19924;-60
2023/01/20 00:35:15;;;;;;;;;;;;;;;6.04;100.00;97221.41;5118443;28;19971;-60
2023/01/20 00:37:42;;;;;;;;;;;;;;;6.10;100.00;97212.47;5118333;28;19954;-61
2023/01/20 00:40:09;;;;;;;;;;;;;;;6.17;100.00;97211.22;5118988;28;19924;-60
2023/01/20 00:42:36;;;;;;;;;;;;;;;6.05;100.00;97212.44;5101158;28;19924;-61
2023/01/20 00:45:03;;;;;;;;;;;;;;;5.70;100.00;97207.53;5122643;28;19924;-61
2023/01/20 00:47:32;;;;;;;;;;;;;;;5.74;100.00;97209.44;5122829;28;19931;-60
2023/01/20 00:50:00;;;;;;;;;;;;;;;5.90;100.00;97213.09;5119841;28;19974;-61
2023/01/20 00:52:26;;;;;;;;;;;;;;;6.01;100.00;97211.31;5119085;28;19924;-60
2023/01/20 00:54:53;;;;;;;;;;;;;;;5.74;100.00;97208.66;5120520;28;19932;-60
2023/01/20 00:57:19;;;;;;;;;;;;;;;5.35;100.00;97224.59;5104349;28;19924;-61
2023/01/20 00:59:46;;;;;;;;;;;;;;;5.05;100.00;97224.22;5120902;28;20390;-61
2023/01/20 01:02:12;;;;;;;;;;;;;;;4.91;100.00;97230.91;5118972;28;19931;-61
2023/01/20 01:04:38;;;;;;;;;;;;;;;5.08;100.00;97234.31;5119593;28;19923;-61
2023/01/20 01:07:06;;;;;;;;;;;;;;;5.33;100.00;97231.19;5113819;28;19942;-60
2023/01/20 01:09:32;;;;;;;;;;;;;;;5.58;100.00;97228.06;5121729;28;19923;-60
2023/01/20 01:11:59;;;;;;;;;;;;;;;5.78;100.00;97221.16;5119396;28;19928;-61
2023/01/20 01:14:25;;;;;;;;;;;;;;;5.91;100.00;97226.06;5118900;28;19924;-60
2023/01/20 01:16:52;;;;;;;;;;;;;;;5.92;100.00;97238.28;5120460;28;19935;-60
2023/01/20 01:19:18;;;;;;;;;;;;;;;5.74;100.00;97253.69;5122068;28;19930;-61
2023/01/20 01:21:45;;;;;;;;;;;;;;;5.80;100.00;97247.38;5120993;28;19959;-61
2023/01/20 01:24:12;;;;;;;;;;;;;;;5.90;100.00;97247.53;5118731;28;19928;-61
2023/01/20 01:26:39;;;;;;;;;;;;;;;5.98;100.00;97244.44;5118496;28;19997;-61
2023/01/20 01:29:05;;;;;;;;;;;;;;;6.04;100.00;97254.03;5121927;28;20616;-60
2023/01/20 01:31:32;;;;;;;;;;;;;;;6.06;100.00;97257.25;5122072;28;19924;-60
2023/01/20 01:33:58;;;;;;;;;;;;;;;6.09;100.00;97256.75;5119160;28;19984;-60
2023/01/20 01:36:24;;;;;;;;;;;;;;;6.12;100.00;97261.56;5111200;28;19963;-60
2023/01/20 01:38:51;;;;;;;;;;;;;;;6.12;100.00;97261.56;5120030;28;19935;-62
2023/01/20 01:41:19;;;;;;;;;;;;;;;6.15;100.00;97265.56;5121971;28;19924;-60
2023/01/20 01:44:02;;;;;;;;;;;;;;;6.13;100.00;97260.47;5120857;28;19928;-61
2023/01/20 01:46:29;;;;;;;;;;;;;;;5.84;100.00;97259.09;5118573;28;19927;-60
2023/01/20 01:48:57;;;;;;;;;;;;;;;5.59;100.00;97264.09;5106321;28;19928;-61
2023/01/20 01:51:25;;;;;;;;;;;;;;;5.36;100.00;97273.06;5128208;28;19955;-60
2023/01/20 01:53:54;;;;;;;;;;;;;;;5.29;100.00;97270.59;5105829;28;19987;-60
2023/01/20 01:56:23;;;;;;;;;;;;;;;5.06;100.00;97270.00;5125668;28;20038;-61
2023/01/20 01:58:51;;;;;;;;;;;;;;;4.91;100.00;97262.66;5123840;28;19983;-61
2023/01/20 02:01:18;;;;;;;;;;;;;;;4.99;100.00;97259.59;5122258;28;19924;-61
2023/01/20 02:03:49;;;;;;;;;;;;;;;5.00;100.00;97258.56;5122777;28;19989;-63
2023/01/20 02:06:16;;;;;;;;;;;;;;;4.94;100.00;97254.25;5120095;28;19924;-62
2023/01/20 02:08:42;;;;;;;;;;;;;;;5.05;100.00;97245.38;5122242;28;19925;-61
2023/01/20 02:11:09;;;;;;;;;;;;;;;5.19;100.00;97249.31;5125360;28;19924;-60
2023/01/20 02:13:37;;;;;;;;;;;;;;;5.38;100.00;97245.31;5125043;28;19928;-60
2023/01/20 02:16:08;;;;;;;;;;;;;;;5.66;100.00;97247.00;5121312;28;19956;-61
2023/01/20 02:18:41;;;;;;;;;;;;;;;5.72;100.00;97235.41;5121397;28;19973;-61
2023/01/20 02:21:20;;;;;;;;;;;;;;;5.71;100.00;97248.88;5103425;28;19967;-61
2023/01/20 02:23:58;;;;;;;;;;;;;;;5.54;100.00;97251.59;5104242;28;19952;-61
2023/01/20 02:26:33;;;;;;;;;;;;;;;5.11;100.00;97256.84;5124953;28;20316;-61
2023/01/20 02:29:21;;;;;;;;;;;;;;;4.67;100.00;97261.25;5103640;28;20010;-61
2023/01/20 02:32:08;;;;;;;;;;;;;;;4.30;100.00;97245.06;5122519;28;19952;-62
2023/01/20 02:34:38;;;;;;;;;;;;;;;4.51;100.00;97254.09;5120846;28;19920;-60
2023/01/20 02:37:08;;;;;;;;;;;;;;;4.80;100.00;97259.06;5120912;28;19963;-60
2023/01/20 02:39:39;;;;;;;;;;;;;;;4.76;100.00;97257.97;5121075;28;19960;-61
2023/01/20 02:42:08;;;;;;;;;;;;;;;4.95;100.00;97255.03;5121200;28;19924;-62
2023/01/20 02:44:37;;;;;;;;;;;;;;;5.06;100.00;97254.13;5121217;28;19928;-61
2023/01/20 02:47:07;;;;;;;;;;;;;;;5.10;100.00;97258.72;5124715;28;19924;-60
2023/01/20 02:49:36;;;;;;;;;;;;;;;5.12;100.00;97256.63;5124554;28;19943;-61
2023/01/20 02:52:07;;;;;;;;;;;;;;;5.24;100.00;97253.84;5124474;28;19923;-61
2023/01/20 02:54:36;;;;;;;;;;;;;;;5.18;100.00;97249.53;5106279;28;19951;-61
2023/01/20 02:57:05;;;;;;;;;;;;;;;5.31;100.00;97251.84;5121072;28;19935;-61
2023/01/20 02:59:34;;;;;;;;;;;;;;;5.30;100.00;97258.97;5120135;28;19983;-59
2023/01/20 03:02:03;;;;;;;;;;;;;;;5.37;100.00;97258.78;5123977;28;19955;-61
2023/01/20 03:04:33;;;;;;;;;;;;;;;5.13;100.00;97263.53;5124203;28;19923;-60
2023/01/20 03:07:00;;;;;;;;;;;;;;;5.12;100.00;97277.78;5115685;28;19928;-60
2023/01/20 03:09:32;;;;;;;;;;;;;;;5.29;100.00;97275.13;5124006;28;19963;-61
2023/01/20 03:12:02;;;;;;;;;;;;;;;5.51;100.00;97265.31;5121175;28;20772;-60
2023/01/20 03:14:28;;;;;;;;;;;;;;;5.64;100.00;97264.16;5120425;28;19924;-61
2023/01/20 03:16:55;;;;;;;;;;;;;;;5.73;100.00;97273.25;5122551;28;19924;-61
2023/01/20 03:19:22;;;;;;;;;;;;;;;5.84;100.00;97272.34;5123835;28;19979;-61
2023/01/20 03:21:48;;;;;;;;;;;;;;;5.88;100.00;97279.56;5122623;28;19974;-61
2023/01/20 03:24:14;;;;;;;;;;;;;;;5.95;100.00;97271.44;5120271;28;19951;-61
2023/01/20 03:26:42;;;;;;;;;;;;;;;5.98;100.00;97270.94;5102285;28;19932;-61
2023/01/20 03:29:10;;;;;;;;;;;;;;;5.99;100.00;97277.84;5123815;28;19919;-61
2023/01/20 03:31:37;;;;;;;;;;;;;;;6.03;100.00;97289.56;5123566;28;19923;-61
2023/01/20 03:34:09;;;;;;;;;;;;;;;6.02;100.00;97287.94;5120219;27;19967;-61
2023/01/20 03:36:37;;;;;;;;;;;;;;;6.05;100.00;97308.66;5112815;28;19931;-61
2023/01/20 03:39:04;;;;;;;;;;;;;;;6.07;100.00;97309.19;5123249;28;19958;-61
2023/01/20 03:41:36;;;;;;;;;;;;;;;5.89;100.00;97314.81;5123347;28;19923;-61
2023/01/20 03:44:10;;;;;;;;;;;;;;;5.88;100.00;97310.59;5119906;28;20320;-61
2023/01/20 03:46:41;;;;;;;;;;;;;;;5.92;100.00;97312.47;5119663;28;19924;-61
2023/01/20 03:49:08;;;;;;;;;;;;;;;5.99;100.00;97322.91;5119782;28;19985;-61
2023/01/20 03:51:40;;;;;;;;;;;;;;;6.01;100.00;97323.44;5119545;28;20296;-61
2023/01/20 03:54:08;;;;;;;;;;;;;;;6.05;100.00;97327.22;5119759;28;19988;-61
2023/01/20 03:56:37;;;;;;;;;;;;;;;6.05;100.00;97326.41;5101482;28;19953;-61
2023/01/20 03:59:05;;;;;;;;;;;;;;;6.08;100.00;97324.06;5123009;28;20003;-61
2023/01/20 04:01:35;;;;;;;;;;;;;;;6.10;100.00;97327.25;5122956;28;19959;-61
2023/01/20 04:04:04;;;;;;;;;;;;;;;6.03;100.00;97334.63;5119636;28;19986;-61
2023/01/20 04:06:31;;;;;;;;;;;;;;;6.01;100.00;97333.22;5112251;28;19991;-61
2023/01/20 04:08:59;;;;;;;;;;;;;;;6.03;100.00;97337.25;5121665;28;19956;-61
2023/01/20 04:11:26;;;;;;;;;;;;;;;6.01;100.00;97342.00;5122016;28;19927;-61
2023/01/20 04:13:52;;;;;;;;;;;;;;;5.99;100.00;97346.75;5120767;28;20508;-60
2023/01/20 04:16:20;;;;;;;;;;;;;;;6.00;100.00;97340.41;5119188;28;19924;-61
2023/01/20 04:18:48;;;;;;;;;;;;;;;5.99;100.00;97338.81;5120096;28;19920;-61
2023/01/20 04:21:18;;;;;;;;;;;;;;;5.94;100.00;97344.06;5122754;28;19951;-61
2023/01/20 04:23:50;;;;;;;;;;;;;;;5.98;100.00;97347.78;5121613;28;19935;-61
2023/01/20 04:26:16;;;;;;;;;;;;;;;6.02;100.00;97356.06;5118896;28;19962;-61
2023/01/20 04:28:42;;;;;;;;;;;;;;;5.98;100.00;97342.50;5119344;28;20018;-61
2023/01/20 04:31:10;;;;;;;;;;;;;;;5.97;100.00;97351.50;5122371;28;19923;-61
2023/01/20 04:33:38;;;;;;;;;;;;;;;6.00;100.00;97358.97;5122254;28;20507;-61
2023/01/20 04:36:05;;;;;;;;;;;;;;;6.03;100.00;97358.47;5111834;28;19964;-61
2023/01/20 04:38:31;;;;;;;;;;;;;;;6.08;100.00;97358.53;5118732;28;20000;-60
2023/01/20 04:40:58;;;;;;;;;;;;;;;6.10;100.00;97359.06;5121275;28;19928;-60
2023/01/20 04:43:24;;;;;;;;;;;;;;;6.14;100.00;97362.84;5122316;28;20007;-60
2023/01/20 04:45:50;;;;;;;;;;;;;;;6.14;100.00;97360.19;5120535;28;19995;-60
2023/01/20 04:48:17;;;;;;;;;;;;;;;6.16;100.00;97367.91;5118995;28;19943;-60
2023/01/20 04:50:44;;;;;;;;;;;;;;;6.15;100.00;97372.41;5119062;28;19924;-60
2023/01/20 04:53:12;;;;;;;;;;;;;;;6.16;100.00;97368.69;5122175;28;19927;-60
2023/01/20 04:55:38;;;;;;;;;;;;;;;6.17;100.00;97377.44;5122179;28;20035;-60
2023/01/20 04:58:04;;;;;;;;;;;;;;;6.14;100.00;97378.72;5109990;28;19959;-60
2023/01/20 05:00:31;;;;;;;;;;;;;;;6.14;100.00;97378.72;5109896;28;19920;-60
2023/01/20 05:02:57;;;;;;;;;;;;;;;6.03;100.00;97379.69;5109928;28;19935;-60
2023/01/20 05:05:24;;;;;;;;;;;;;;;5.80;100.00;97387.81;5111451;28;19970;-61
2023/01/20 05:07:53;;;;;;;;;;;;;;;5.86;100.00;97384.22;5118855;28;19924;-61
2023/01/20 05:10:20;;;;;;;;;;;;;;;5.91;100.00;97381.66;5100687;28;19924;-61
2023/01/20 05:12:46;;;;;;;;;;;;;;;5.97;100.00;97391.25;5119288;28;19928;-61
2023/01/20 05:15:13;;;;;;;;;;;;;;;6.03;100.00;97398.22;5104040;28;19983;-61
2023/01/20 05:17:39;;;;;;;;;;;;;;;6.02;100.00;97390.50;5121727;28;19962;-61
2023/01/20 05:20:06;;;;;;;;;;;;;;;6.00;100.00;97401.38;5118053;28;19924;-61
2023/01/20 05:22:32;;;;;;;;;;;;;;;6.00;100.00;97409.31;5117787;28;19924;-61
2023/01/20 05:25:00;;;;;;;;;;;;;;;6.05;100.00;97417.31;5120978;28;19924;-61
2023/01/20 05:27:27;;;;;;;;;;;;;;;6.07;100.00;97407.28;5121612;28;19962;-61
2023/01/20 05:29:53;;;;;;;;;;;;;;;6.08;100.00;97413.38;5119789;28;19966;-61
2023/01/20 05:32:19;;;;;;;;;;;;;;;6.10;100.00;97414.72;5118089;28;19924;-60
2023/01/20 05:34:46;;;;;;;;;;;;;;;6.05;100.00;97414.69;5119671;28;19924;-60
2023/01/20 05:37:12;;;;;;;;;;;;;;;6.08;100.00;97429.28;5114436;28;19945;-60
2023/01/20 05:39:39;;;;;;;;;;;;;;;6.06;100.00;97424.25;5121579;28;19930;-60
2023/01/20 05:42:06;;;;;;;;;;;;;;;6.04;100.00;97430.81;5109666;28;19931;-60
2023/01/20 05:44:34;;;;;;;;;;;;;;;6.03;100.00;97429.22;5109884;28;20015;-61
2023/01/20 05:47:01;;;;;;;;;;;;;;;6.04;100.00;97431.63;5109570;28;20023;-61
2023/01/20 05:49:27;;;;;;;;;;;;;;;6.02;100.00;97441.69;5109769;28;19924;-61
2023/01/20 05:51:54;;;;;;;;;;;;;;;6.07;100.00;97438.28;5109685;28;19952;-61
2023/01/20 05:54:20;;;;;;;;;;;;;;;6.07;100.00;97433.78;5109468;28;19924;-61
2023/01/20 05:56:47;;;;;;;;;;;;;;;6.06;100.00;97439.34;5109100;28;19934;-61
2023/01/20 05:59:15;;;;;;;;;;;;;;;6.07;100.00;97428.47;5109200;28;19931;-61
2023/01/20 06:01:41;;;;;;;;;;;;;;;6.07;100.00;97447.03;5109270;28;19971;-61
2023/01/20 06:04:08;;;;;;;;;;;;;;;6.10;100.00;97441.25;5121139;28;19959;-61
2023/01/20 06:06:34;;;;;;;;;;;;;;;6.13;100.00;97440.75;5113322;28;19927;-61
2023/01/20 06:09:01;;;;;;;;;;;;;;;6.14;100.00;97445.00;5120384;28;19924;-61
2023/01/20 06:11:27;;;;;;;;;;;;;;;6.13;100.00;97443.41;5120937;28;19927;-60
2023/01/20 06:13:53;;;;;;;;;;;;;;;6.11;100.00;97453.47;5118676;28;19966;-60
2023/01/20 06:16:21;;;;;;;;;;;;;;;6.12;100.00;97447.13;5117368;28;19959;-59
2023/01/20 06:18:47;;;;;;;;;;;;;;;6.09;100.00;97442.31;5118343;28;19983;-59
2023/01/20 06:21:14;;;;;;;;;;;;;;;6.09;100.00;97447.59;5120970;28;19955;-59
2023/01/20 06:23:40;;;;;;;;;;;;;;;6.01;100.00;97449.84;5120462;28;19984;-60
2023/01/20 06:26:08;;;;;;;;;;;;;;;6.01;100.00;97455.16;5117451;28;19928;-60
2023/01/20 06:28:34;;;;;;;;;;;;;;;5.95;100.00;97463.06;5117173;28;20045;-60
2023/01/20 06:31:02;;;;;;;;;;;;;;;6.07;100.00;97457.63;5120147;28;19963;-60
2023/01/20 06:33:30;;;;;;;;;;;;;;;6.06;100.00;97460.53;5120878;28;19935;-60
2023/01/20 06:35:56;;;;;;;;;;;;;;;6.05;100.00;97462.38;5096706;28;19951;-61
2023/01/20 06:38:23;;;;;;;;;;;;;;;6.12;100.00;97460.38;5120749;28;19959;-60
2023/01/20 06:40:50;;;;;;;;;;;;;;;6.16;100.00;97466.00;5122113;28;19924;-60
2023/01/20 06:43:16;;;;;;;;;;;;;;;6.14;100.00;97463.56;5124382;28;19920;-61
2023/01/20 06:45:43;;;;;;;;;;;;;;;6.04;100.00;97463.44;5123779;28;19955;-61
2023/01/20 06:48:09;;;;;;;;;;;;;;;5.84;100.00;97468.44;5120708;28;19924;-61
2023/01/20 06:50:37;;;;;;;;;;;;;;;5.88;100.00;97475.66;5102630;28;19930;-60
2023/01/20 06:53:03;;;;;;;;;;;;;;;5.94;100.00;97471.25;5105803;28;19924;-60
2023/01/20 06:55:29;;;;;;;;;;;;;;;6.00;100.00;97486.19;5124127;28;19927;-60
2023/01/20 06:57:56;;;;;;;;;;;;;;;6.02;100.00;97488.56;5121509;28;19990;-60
2023/01/20 07:00:23;;;;;;;;;;;;;;;6.09;100.00;97491.88;5120608;28;19924;-60
2023/01/20 07:02:49;;;;;;;;;;;;;;;6.10;100.00;97490.81;5121794;28;20307;-60
2023/01/20 07:05:16;;;;;;;;;;;;;;;6.00;100.00;97494.13;5102109;28;19920;-61
2023/01/20 07:07:44;;;;;;;;;;;;;;;5.99;100.00;97497.81;5120528;28;20007;-61
2023/01/20 07:10:11;;;;;;;;;;;;;;;5.93;100.00;97496.16;5120449;28;20617;-61
2023/01/20 07:12:38;;;;;;;;;;;;;;;5.87;100.00;97502.41;5120589;28;19959;-58
2023/01/20 07:15:05;;;;;;;;;;;;;;;5.91;100.00;97508.84;5124083;28;20039;-61
2023/01/20 07:17:31;;;;;;;;;;;;;;;6.00;100.00;97510.03;5124066;28;20016;-61
2023/01/20 07:19:58;;;;;;;;;;;;;;;5.94;100.00;97508.38;5103242;28;19954;-61
2023/01/20 07:22:24;;;;;;;;;;;;;;;5.89;100.00;97518.88;5120302;28;20066;-61
2023/01/20 07:24:52;;;;;;;;;;;;;;;5.92;100.00;97526.34;5121746;28;19920;-61
2023/01/20 07:27:18;;;;;;;;;;;;;;;5.97;100.00;97523.78;5123784;28;20007;-61
2023/01/20 07:29:44;;;;;;;;;;;;;;;5.98;100.00;97526.16;5122630;27;19963;-61
2023/01/20 07:32:11;;;;;;;;;;;;;;;5.90;100.00;97534.53;5120084;28;19983;-60
2023/01/20 07:34:37;;;;;;;;;;;;;;;5.92;100.00;97535.09;5120975;28;19959;-60
2023/01/20 07:37:03;;;;;;;;;;;;;;;5.88;100.00;97541.13;5114985;28;20539;-61
2023/01/20 07:39:31;;;;;;;;;;;;;;;5.90;100.00;97541.69;5123502;28;19946;-61
2023/01/20 07:41:59;;;;;;;;;;;;;;;5.93;100.00;97549.16;5120887;28;19928;-61
2023/01/20 07:44:25;;;;;;;;;;;;;;;5.93;100.00;97546.50;5119868;28;19932;-61
2023/01/20 07:46:51;;;;;;;;;;;;;;;5.99;100.00;97545.53;5121519;28;19984;-60
2023/01/20 07:49:18;;;;;;;;;;;;;;;5.94;100.00;97550.78;5123216;28;19974;-60
2023/01/20 07:51:44;;;;;;;;;;;;;;;6.01;100.00;97555.88;5122413;28;19966;-61
2023/01/20 07:54:11;;;;;;;;;;;;;;;6.05;100.00;97552.50;5119582;28;19988;-60
2023/01/20 07:56:37;;;;;;;;;;;;;;;6.04;100.00;97563.34;5119150;28;19935;-60
2023/01/20 07:59:05;;;;;;;;;;;;;;;6.07;100.00;97560.22;5122619;28;19959;-60
2023/01/20 08:01:32;;;;;;;;;;;;;;;6.03;100.00;97553.81;5122767;28;19971;-60
2023/01/20 08:04:00;;;;;;;;;;;;;;;5.99;100.00;97566.72;5119926;28;19977;-60
2023/01/20 08:06:26;;;;;;;;;;;;;;;5.93;100.00;97571.16;5112231;28;19920;-60
2023/01/20 08:08:53;;;;;;;;;;;;;;;5.93;100.00;97576.47;5120989;28;19928;-60
2023/01/20 08:11:20;;;;;;;;;;;;;;;5.91;100.00;97575.09;5122497;28;19986;-60
2023/01/20 08:13:46;;;;;;;;;;;;;;;5.87;100.00;97576.63;5121423;28;19975;-60
2023/01/20 08:16:15;;;;;;;;;;;;;;;5.94;100.00;97585.22;5118975;28;19931;-61
2023/01/20 08:18:42;;;;;;;;;;;;;;;5.94;100.00;97585.22;5118916;28;20042;-60
2023/01/20 08:21:16;;;;;;;;;;;;;;;6.01;100.00;97593.78;5122436;28;19928;-60
2023/01/20 08:23:43;;;;;;;;;;;;;;;5.78;100.00;97599.22;5121659;28;19924;-61
2023/01/20 08:26:09;;;;;;;;;;;;;;;5.81;100.00;97594.25;5118777;28;19967;-61
2023/01/20 08:28:35;;;;;;;;;;;;;;;5.65;100.00;97607.47;5118823;28;19959;-61
2023/01/20 08:31:06;;;;;;;;;;;;;;;5.69;100.00;97609.41;5121658;28;20047;-60
2023/01/20 08:33:33;;;;;;;;;;;;;;;5.55;100.00;97613.41;5122145;28;19959;-60
2023/01/20 08:36:03;;;;;;;;;;;;;;;5.63;100.00;97612.22;5111958;28;19928;-60
2023/01/20 08:38:30;;;;;;;;;;;;;;;5.78;100.00;97609.81;5118550;28;19935;-60
2023/01/20 08:40:56;;;;;;;;;;;;;;;5.65;100.00;97613.59;5120719;28;19928;-60
2023/01/20 08:43:22;;;;;;;;;;;;;;;5.63;100.00;97620.16;5121727;28;20010;-60
2023/01/20 08:45:57;;;;;;;;;;;;;;;5.78;100.00;97623.88;5101954;28;20031;-60
2023/01/20 08:48:24;;;;;;;;;;;;;;;5.83;100.00;97623.97;5118020;28;19924;-60
2023/01/20 08:50:51;;;;;;;;;;;;;;;5.92;100.00;97621.75;5119159;28;20125;-60
2023/01/20 08:53:18;;;;;;;;;;;;;;;5.94;100.00;97625.75;5121546;28;19923;-60
2023/01/20 08:55:45;;;;;;;;;;;;;;;6.03;100.00;97628.84;5120721;28;20017;-60
2023/01/20 08:58:12;;;;;;;;;;;;;;;5.94;100.00;97632.94;5117522;28;19931;-60
2023/01/20 09:00:38;;;;;;;;;;;;;;;6.04;100.00;97632.25;5118026;28;19928;-60
2023/01/20 09:03:04;;;;;;;;;;;;;;;6.02;100.00;97632.53;5121464;28;19962;-60
2023/01/20 09:05:31;;;;;;;;;;;;;;;6.09;100.00;97632.38;5115743;28;19967;-60
2023/01/20 09:07:58;;;;;;;;;;;;;;;6.15;100.00;97639.34;5118031;28;19951;-60
2023/01/20 09:10:25;;;;;;;;;;;;;;;6.20;100.00;97639.41;5117934;28;19952;-60
2023/01/20 09:12:51;;;;;;;;;;;;;;;6.20;100.00;97639.41;5119301;28;20014;-60
2023/01/20 09:15:19;;;;;;;;;;;;;;;6.19;100.00;97646.56;5121433;28;19966;-60
2023/01/20 09:17:45;;;;;;;;;;;;;;;6.26;100.00;97643.75;5120273;28;19920;-60
2023/01/20 09:20:12;;;;;;;;;;;;;;;6.24;100.00;97644.00;5117542;28;19925;-60
2023/01/20 09:22:39;;;;;;;;;;;;;;;6.17;100.00;97656.63;5117688;28;20035;-60
2023/01/20 09:25:07;;;;;;;;;;;;;;;5.89;100.00;97657.47;5109420;28;19955;-60
2023/01/20 09:27:34;;;;;;;;;;;;;;;5.94;100.00;97662.84;5109146;28;19987;-60
2023/01/20 09:30:01;;;;;;;;;;;;;;;5.94;100.00;97662.09;5109287;28;20001;-60
2023/01/20 09:32:27;;;;;;;;;;;;;;;6.08;100.00;97663.38;5109446;28;19976;-60
2023/01/20 09:34:55;;;;;;;;;;;;;;;6.17;100.00;97661.13;5110631;28;19928;-60
2023/01/20 09:45:52;;;;;;;;;;;;;;;6.19;100.00;97674.97;5120102;28;19923;-61
2023/01/20 09:54:01;;;;;;;;;;;;;;;6.21;100.00;97671.00;5120154;28;19950;-60
2023/01/20 09:56:30;;;;;;;;;;;;;;;6.21;100.00;97671.00;5120794;28;19958;-60
2023/01/20 09:58:59;;;;;;;;;;;;;;;6.25;100.00;97674.00;5118400;28;19931;-60
2023/01/20 10:01:29;;;;;;;;;;;;;;;6.27;100.00;97679.84;5117481;28;20022;-61
2023/01/20 10:03:59;;;;;;;;;;;;;;;6.21;100.00;97678.97;5119393;28;19920;-60
2023/01/20 10:06:29;;;;;;;;;;;;;;;6.30;100.00;97682.81;5114344;28;19924;-60
2023/01/20 10:08:59;;;;;;;;;;;;;;;6.21;100.00;97681.63;5119593;28;19944;-60
2023/01/20 10:11:28;;;;;;;;;;;;;;;6.24;100.00;97682.97;5124799;28;19959;-61
2023/01/20 10:14:02;;;;;;;;;;;;;;;6.19;100.00;97689.00;5122604;28;19924;-61
2023/01/20 10:16:32;;;;;;;;;;;;;;;6.08;100.00;97679.28;5121177;28;19959;-60
2023/01/20 10:19:01;;;;;;;;;;;;;;;6.26;100.00;97675.56;5123557;28;19988;-61
2023/01/20 10:21:31;;;;;;;;;;;;;;;6.30;100.00;97682.00;5124474;28;19946;-60
2023/01/20 10:24:00;;;;;;;;;;;;;;;6.22;100.00;97672.59;5122229;28;19924;-60
2023/01/20 10:26:30;;;;;;;;;;;;;;;6.15;100.00;97679.94;5121116;28;19942;-60
2023/01/20 10:28:59;;;;;;;;;;;;;;;6.19;100.00;97681.03;5122882;28;19955;-60
2023/01/20 10:31:27;;;;;;;;;;;;;;;6.27;100.00;97687.81;5124450;28;20025;-60
2023/01/20 10:33:55;;;;;;;;;;;;;;;6.24;100.00;97681.13;5122184;28;19935;-60
2023/01/20 10:36:24;;;;;;;;;;;;;;;6.23;100.00;97681.38;5113706;28;19935;-61
2023/01/20 10:38:52;;;;;;;;;;;;;;;6.24;100.00;97678.50;5121917;28;19924;-60
2023/01/20 10:41:22;;;;;;;;;;;;;;;6.23;100.00;97682.19;5124129;28;19924;-60
2023/01/20 10:43:48;;;;;;;;;;;;;;;6.28;100.00;97678.81;5122782;28;19924;-60
2023/01/20 10:46:26;;;;;;;;;;;;;;;6.39;100.00;97684.03;5120505;28;19924;-60
2023/01/20 10:49:01;;;;;;;;;;;;;;;6.37;100.00;97678.19;5122027;28;19960;-60
2023/01/20 10:51:33;;;;;;;;;;;;;;;6.39;100.00;97681.38;5123935;28;19949;-60
2023/01/20 10:54:06;;;;;;;;;;;;;;;6.38;100.00;97679.75;5121303;28;19946;-60
2023/01/20 10:56:38;;;;;;;;;;;;;;;6.40;100.00;97676.88;5120912;28;19959;-60
2023/01/20 10:59:07;;;;;;;;;;;;;;;6.44;100.00;97668.19;5124424;28;19938;-60
2023/01/20 11:01:35;;;;;;;;;;;;;;;6.42;100.00;97680.91;5124064;28;19927;-60
2023/01/20 11:04:02;;;;;;;;;;;;;;;6.36;100.00;97671.25;5121321;28;20026;-60
2023/01/20 11:06:28;;;;;;;;;;;;;;;6.37;100.00;97672.88;5113670;28;19924;-60
2023/01/20 11:08:55;;;;;;;;;;;;;;;6.43;100.00;97671.09;5122394;28;19931;-60
2023/01/20 11:11:22;;;;;;;;;;;;;;;6.12;100.00;97682.25;5124327;28;19920;-60
2023/01/20 11:13:50;;;;;;;;;;;;;;;6.38;100.00;97673.66;5122715;28;19963;-61
2023/01/20 11:16:18;;;;;;;;;;;;;;;6.44;100.00;97667.38;5120407;28;19924;-61
2023/01/20 11:18:53;;;;;;;;;;;;;;;6.48;100.00;97674.63;5121057;28;19946;-61
2023/01/20 11:21:23;;;;;;;;;;;;;;;6.43;100.00;97681.69;5123510;28;19928;-61
2023/01/20 11:23:51;;;;;;;;;;;;;;;6.47;100.00;97683.63;5122516;28;20014;-61
2023/01/20 11:26:20;;;;;;;;;;;;;;;6.51;100.00;97678.63;5120565;28;19931;-61
2023/01/20 11:28:51;;;;;;;;;;;;;;;6.44;100.00;97677.97;5121090;28;19924;-61
2023/01/20 11:31:17;;;;;;;;;;;;;;;6.31;100.00;97681.75;5123817;28;19991;-61
2023/01/20 11:33:56;;;;;;;;;;;;;;;6.13;100.00;97679.34;5122986;28;20027;-61
2023/01/20 11:36:24;;;;;;;;;;;;;;;5.62;100.00;97684.78;5113114;28;19946;-59
2023/01/20 11:38:51;;;;;;;;;;;;;;;5.72;100.00;97684.97;5121317;28;19924;-61
2023/01/20 11:41:18;;;;;;;;;;;;;;;5.91;100.00;97681.09;5123330;28;19997;-61
2023/01/20 11:43:45;;;;;;;;;;;;;;;9.96;100.00;97687.50;5122844;28;20049;-61
2023/01/20 11:46:12;;;;;;;;;;;;;;;13.53;100.00;97678.75;5120248;28;19927;-61
2023/01/20 11:48:38;;;;;;;;;;;;;;;14.47;100.00;97671.53;5120020;28;20617;-60
2023/01/20 11:51:18;;;;;;;;;;;;;;;15.18;100.00;97669.47;5123342;28;19967;-60
2023/01/20 11:53:45;;;;;;;;;;;;;;;15.43;100.00;97664.41;5122427;28;19924;-61
2023/01/20 11:56:16;;;;;;;;;;;;;;;15.78;96.89;97673.69;5119226;28;19969;-61
2023/01/20 11:58:49;;;;;;;;;;;;;;;16.03;93.88;97670.41;5119049;28;19982;-61
2023/01/20 12:01:21;;;;;;;;;;;;;;;16.28;90.66;97663.63;5104479;28;19924;-61
2023/01/20 12:04:04;;;;;;;;;;;;;;;14.39;89.95;97668.72;5121286;28;19923;-61
2023/01/20 12:06:33;;;;;;;;;;;;;;;15.99;94.05;97677.53;5112067;28;19975;-61
2023/01/20 12:09:02;;;;;;;;;;;;;;;16.31;89.21;97671.13;5121749;28;19960;-61
2023/01/20 12:11:31;;;;;;;;;;;;;;;15.15;86.75;97670.88;5122256;28;19991;-61
2023/01/20 12:14:21;;;;;;;;;;;;;;;13.04;84.11;97666.69;5119836;28;19966;-61
2023/01/20 12:16:50;;;;;;;;;;;;;;;15.03;100.00;97667.88;5119694;28;19928;-61
2023/01/20 12:19:20;;;;;;;;;;;;;;;16.03;92.49;97677.72;5122100;28;19983;-61
2023/01/20 12:21:51;;;;;;;;;;;;;;;16.39;87.28;97675.00;5120946;28;19924;-61
2023/01/20 12:24:20;;;;;;;;;;;;;;;15.26;86.53;97674.16;5118465;28;19960;-60
2023/01/20 12:26:47;;;;;;;;;;;;;;;16.44;87.64;97677.56;5119303;28;20011;-60
2023/01/20 12:29:19;;;;;;;;;;;;;;;16.67;83.44;97679.19;5121839;28;19959;-61
2023/01/20 12:31:47;;;;;;;;;;;;;;;15.63;87.80;97672.09;5119939;28;19927;-61
2023/01/20 12:34:15;;;;;;;;;;;;;;;16.62;84.63;97682.78;5118370;28;19924;-60
2023/01/20 12:36:55;;;;;;;;;;;;;;;16.92;81.21;97675.06;5111179;28;19962;-61
2023/01/20 12:39:28;;;;;;;;;;;;;;;17.07;78.21;97680.84;5121689;28;20039;-61
2023/01/20 12:42:15;;;;;;;;;;;;;;;17.08;73.93;97685.13;5119496;28;19935;-61
2023/01/20 12:44:46;;;;;;;;;;;;;;;17.05;71.38;97676.88;5112806;28;19924;-61
2023/01/20 12:47:19;;;;;;;;;;;;;;;15.80;72.93;97693.00;5121605;28;19987;-61
2023/01/20 12:49:53;;;;;;;;;;;;;;;13.96;79.01;97687.56;5120366;28;19920;-61
2023/01/20 12:52:29;;;;;;;;;;;;;;;13.27;85.83;97690.06;5115189;28;19924;-61
2023/01/20 12:55:14;;;;;;;;;;;;;;;12.35;89.51;97695.44;5119181;28;19934;-59
2023/01/20 12:57:47;;;;;;;;;;;;;;;11.80;97.10;97699.25;5116566;28;19956;-61
2023/01/20 13:00:26;;;;;;;;;;;;;;;11.47;96.50;97694.56;5109763;28;19958;-63
2023/01/20 13:03:03;;;;;;;;;;;;;;;14.08;98.76;97696.00;5109297;28;19959;-63
2023/01/20 13:05:49;;;;;;;;;;;;;;;15.70;81.65;97692.41;5110974;28;19956;-63